createdAt,value
2023-01-01T00:02:13.339Z,185.95
2023-01-01T00:04:40.048Z,193.23
2023-01-01T00:07:06.762Z,180.07
2023-01-01T00:09:33.528Z,163.48
2023-01-01T00:12:00.198Z,156.77
2023-01-01T00:14:26.894Z,142.80
2023-01-01T00:16:55.175Z,132.27
2023-01-01T00:19:23.303Z,125.53
2023-01-01T00:21:50.045Z,99.60
2023-01-01T00:24:16.711Z,73.40
2023-01-01T00:26:43.425Z,67.57
2023-01-01T00:29:10.263Z,41.58
2023-01-01T00:31:37.341Z,37.13
2023-01-01T00:34:04.168Z,38.58
2023-01-01T00:36:32.371Z,40.25
2023-01-01T00:38:59.039Z,30.52
2023-01-01T00:41:25.812Z,29.85
2023-01-01T00:43:52.505Z,30.40
2023-01-01T00:46:19.258Z,28.52
2023-01-01T00:48:45.964Z,27.35
2023-01-01T00:51:12.904Z,27.08
2023-01-01T00:53:41.222Z,26.92
2023-01-01T00:56:08.097Z,24.80
2023-01-01T00:58:34.769Z,25.35
2023-01-01T01:01:01.804Z,24.38
2023-01-01T01:03:28.794Z,25.25
2023-01-01T01:05:56.710Z,25.70
2023-01-01T01:08:28.626Z,26.20
2023-01-01T01:11:06.034Z,23.20
2023-01-01T01:13:32.902Z,25.05
2023-01-01T01:15:59.752Z,24.17
2023-01-01T01:18:26.805Z,20.83
2023-01-01T01:20:54.467Z,21.57
2023-01-01T01:23:21.436Z,19.63
2023-01-01T01:25:48.258Z,23.33
2023-01-01T01:28:16.325Z,22.77
2023-01-01T01:30:43.028Z,23.23
2023-01-01T01:33:09.849Z,19.57
2023-01-01T01:35:36.524Z,20.63
2023-01-01T01:38:03.321Z,22.10
2023-01-01T01:40:30.050Z,24.02
2023-01-01T01:42:56.727Z,24.63
2023-01-01T01:45:29.740Z,24.30
2023-01-01T01:48:00.046Z,23.23
2023-01-01T01:50:32.034Z,22.77
2023-01-01T01:53:03.632Z,26.02
2023-01-01T01:55:33.821Z,26.17
2023-01-01T01:58:02.326Z,27.13
2023-01-01T02:00:30.445Z,24.05
2023-01-01T02:03:02.783Z,22.52
2023-01-01T02:05:31.445Z,23.77
2023-01-01T02:07:59.185Z,22.73
2023-01-01T02:10:27.254Z,25.07
2023-01-01T02:12:54.144Z,28.67
2023-01-01T02:15:23.343Z,25.85
2023-01-01T02:17:59.729Z,28.80
2023-01-01T02:20:35.722Z,21.55
2023-01-01T02:23:42.735Z,23.43
2023-01-01T02:26:31.484Z,19.20
2023-01-01T02:29:02.974Z,19.40
2023-01-01T02:31:34.165Z,20.85
2023-01-01T02:34:05.704Z,19.42
2023-01-01T02:36:35.335Z,16.33
2023-01-01T02:39:05.593Z,19.70
2023-01-01T02:41:38.777Z,17.63
2023-01-01T02:46:33.648Z,19.08
2023-01-01T02:49:06.252Z,20.07
2023-01-01T02:51:45.103Z,18.73
2023-01-01T02:54:22.925Z,16.85
2023-01-01T02:56:55.035Z,18.45
2023-01-01T02:59:32.580Z,18.33
2023-01-01T03:02:04.573Z,17.83
2023-01-01T03:04:39.379Z,18.80
2023-01-01T03:07:13.643Z,17.75
2023-01-01T03:09:47.383Z,16.15
2023-01-01T03:12:21.477Z,21.85
2023-01-01T03:14:54.358Z,19.33
2023-01-01T03:17:29.047Z,18.42
2023-01-01T03:19:57.366Z,18.67
2023-01-01T03:22:28.978Z,16.60
2023-01-01T03:24:59.174Z,18.30
2023-01-01T03:27:30.687Z,17.90
2023-01-01T03:30:02.489Z,19.88
2023-01-01T03:32:36.001Z,17.45
2023-01-01T03:35:03.404Z,16.83
2023-01-01T03:37:30.459Z,23.10
2023-01-01T03:39:59.518Z,28.27
2023-01-01T03:42:31.882Z,29.55
2023-01-01T03:45:03.308Z,34.28
2023-01-01T03:47:30.493Z,37.20
2023-01-01T03:49:57.983Z,33.60
2023-01-01T03:52:41.731Z,37.30
2023-01-01T03:55:12.344Z,37.70
2023-01-01T03:57:45.312Z,37.15
2023-01-01T04:00:16.829Z,38.88
2023-01-01T04:02:49.826Z,39.17
2023-01-01T04:05:17.876Z,38.57
2023-01-01T04:10:10.731Z,39.67
2023-01-01T04:12:37.399Z,40.40
2023-01-01T04:15:04.552Z,44.40
2023-01-01T04:17:32.715Z,45.10
2023-01-01T04:19:59.393Z,42.88
2023-01-01T04:22:26.069Z,44.08
2023-01-01T04:24:52.748Z,41.60
2023-01-01T04:27:19.992Z,38.00
2023-01-01T04:29:46.714Z,40.55
2023-01-01T04:32:13.396Z,41.70
2023-01-01T04:34:41.410Z,42.03
2023-01-01T04:37:12.857Z,39.03
2023-01-01T04:39:40.214Z,43.03
2023-01-01T04:42:06.949Z,43.40
2023-01-01T04:44:33.714Z,46.85
2023-01-01T04:47:00.461Z,44.42
2023-01-01T04:49:27.181Z,42.83
2023-01-01T04:51:55.271Z,38.90
2023-01-01T04:54:21.961Z,41.70
2023-01-01T04:56:48.749Z,44.15
2023-01-01T04:59:15.471Z,41.20
2023-01-01T05:01:42.339Z,46.05
2023-01-01T05:04:13.101Z,38.15
2023-01-01T05:06:40.030Z,42.38
2023-01-01T05:09:09.827Z,40.85
2023-01-01T05:11:37.075Z,44.60
2023-01-01T05:14:04.065Z,40.72
2023-01-01T05:16:33.085Z,38.88
2023-01-01T05:19:00.136Z,40.20
2023-01-01T05:21:28.531Z,40.85
2023-01-01T05:23:57.014Z,39.78
2023-01-01T05:26:27.062Z,36.88
2023-01-01T05:28:54.964Z,35.83
2023-01-01T05:31:25.698Z,40.85
2023-01-01T05:33:52.898Z,38.97
2023-01-01T05:36:21.752Z,39.42
2023-01-01T05:38:48.576Z,36.97
2023-01-01T05:41:17.035Z,42.15
2023-01-01T05:43:45.671Z,41.20
2023-01-01T05:46:14.055Z,40.33
2023-01-01T05:48:40.774Z,40.28
2023-01-01T05:51:09.922Z,36.10
2023-01-01T05:53:36.679Z,39.05
2023-01-01T05:56:03.932Z,35.67
2023-01-01T05:58:31.916Z,39.00
2023-01-01T06:01:06.311Z,36.47
2023-01-01T06:03:33.010Z,33.80
2023-01-01T06:06:03.787Z,32.42
2023-01-01T06:08:30.459Z,31.98
2023-01-01T06:10:59.144Z,29.95
2023-01-01T06:13:25.804Z,37.40
2023-01-01T06:15:54.276Z,32.65
2023-01-01T06:18:22.532Z,30.65
2023-01-01T06:20:49.360Z,26.73
2023-01-01T06:23:16.231Z,27.92
2023-01-01T06:25:43.027Z,26.35
2023-01-01T06:28:09.885Z,24.73
2023-01-01T06:30:36.637Z,25.38
2023-01-01T06:33:03.738Z,27.67
2023-01-01T06:35:31.788Z,25.10
2023-01-01T06:37:59.874Z,25.30
2023-01-01T06:40:26.588Z,20.42
2023-01-01T06:42:53.232Z,19.30
2023-01-01T06:45:19.906Z,22.90
2023-01-01T06:47:46.560Z,21.20
2023-01-01T06:50:13.231Z,20.65
2023-01-01T06:52:41.252Z,18.75
2023-01-01T06:55:08.779Z,19.33
2023-01-01T06:57:35.471Z,23.05
2023-01-01T07:00:02.163Z,23.98
2023-01-01T07:02:29.017Z,21.48
2023-01-01T07:04:55.847Z,20.10
2023-01-01T07:07:22.531Z,19.80
2023-01-01T07:09:50.710Z,21.23
2023-01-01T07:12:17.371Z,20.05
2023-01-01T07:14:45.122Z,21.15
2023-01-01T07:17:11.821Z,18.10
2023-01-01T07:19:38.505Z,19.33
2023-01-01T07:22:05.111Z,18.02
2023-01-01T07:24:31.783Z,19.48
2023-01-01T07:26:59.814Z,17.63
2023-01-01T07:29:26.539Z,18.88
2023-01-01T07:31:53.234Z,17.00
2023-01-01T07:34:20.078Z,22.23
2023-01-01T07:36:46.910Z,17.23
2023-01-01T07:39:13.607Z,17.55
2023-01-01T07:41:40.290Z,17.13
2023-01-01T07:44:08.338Z,19.63
2023-01-01T07:46:36.025Z,17.08
2023-01-01T07:49:03.524Z,18.80
2023-01-01T07:51:30.220Z,15.88
2023-01-01T07:54:02.186Z,17.25
2023-01-01T07:56:33.747Z,15.90
2023-01-01T07:59:00.406Z,13.65
2023-01-01T08:01:28.554Z,14.35
2023-01-01T08:03:55.314Z,14.23
2023-01-01T08:06:21.954Z,14.90
2023-01-01T08:08:48.702Z,13.02
2023-01-01T08:11:15.459Z,16.73
2023-01-01T08:13:42.148Z,16.48
2023-01-01T08:16:09.091Z,12.45
2023-01-01T08:18:37.412Z,14.68
2023-01-01T08:21:05.197Z,14.45
2023-01-01T08:23:31.907Z,15.05
2023-01-01T08:25:59.685Z,14.15
2023-01-01T08:28:26.403Z,12.73
2023-01-01T08:30:53.026Z,14.55
2023-01-01T08:33:19.741Z,13.77
2023-01-01T08:35:53.825Z,12.82
2023-01-01T08:38:21.206Z,12.38
2023-01-01T08:40:47.908Z,12.55
2023-01-01T08:43:14.597Z,14.63
2023-01-01T08:45:41.251Z,11.48
2023-01-01T08:48:08.032Z,12.70
2023-01-01T08:50:34.851Z,13.43
2023-01-01T08:53:03.024Z,11.88
2023-01-01T08:55:29.732Z,15.98
2023-01-01T08:57:56.569Z,13.18
2023-01-01T09:00:23.723Z,14.63
2023-01-01T09:02:50.539Z,13.40
2023-01-01T09:05:17.276Z,13.85
2023-01-01T09:07:43.930Z,11.80
2023-01-01T09:10:12.009Z,11.05
2023-01-01T09:12:38.692Z,14.07
2023-01-01T09:15:06.703Z,14.77
2023-01-01T09:17:33.392Z,11.85
2023-01-01T09:20:00.055Z,12.52
2023-01-01T09:22:26.836Z,12.90
2023-01-01T09:24:53.584Z,10.05
2023-01-01T09:27:21.609Z,10.07
2023-01-01T09:29:48.257Z,9.55
2023-01-01T09:32:14.988Z,11.30
2023-01-01T09:34:43.160Z,12.43
2023-01-01T09:37:11.682Z,10.40
2023-01-01T09:39:38.350Z,9.18
2023-01-01T09:42:25.177Z,9.75
2023-01-01T09:45:17.128Z,10.80
2023-01-01T09:47:46.757Z,11.35
2023-01-01T09:50:16.421Z,13.43
2023-01-01T09:52:48.600Z,10.73
2023-01-01T09:55:34.267Z,10.57
2023-01-01T09:58:02.409Z,8.85
2023-01-01T10:00:32.897Z,11.83
2023-01-01T10:03:20.718Z,9.05
2023-01-01T10:05:56.702Z,9.02
2023-01-01T10:08:38.231Z,9.32
2023-01-01T10:11:13.928Z,11.60
2023-01-01T10:13:43.984Z,9.23
2023-01-01T10:16:17.964Z,11.02
2023-01-01T10:18:52.558Z,23.20
2023-01-01T10:21:22.969Z,11.15
2023-01-01T10:23:53.383Z,10.50
2023-01-01T10:26:23.191Z,8.70
2023-01-01T10:28:58.872Z,9.13
2023-01-01T10:31:31.603Z,10.85
2023-01-01T10:33:58.434Z,11.68
2023-01-01T10:36:26.279Z,8.68
2023-01-01T10:38:52.945Z,8.13
2023-01-01T10:41:20.332Z,9.02
2023-01-01T10:43:48.789Z,9.88
2023-01-01T10:46:27.681Z,7.82
2023-01-01T10:49:06.961Z,10.40
2023-01-01T10:51:37.109Z,7.10
2023-01-01T10:54:03.962Z,8.65
2023-01-01T10:56:40.234Z,8.80
2023-01-01T10:59:34.545Z,9.00
2023-01-01T11:02:21.416Z,8.00
2023-01-01T11:04:49.346Z,9.83
2023-01-01T11:07:25.586Z,8.07
2023-01-01T11:10:04.861Z,7.57
2023-01-01T11:15:26.263Z,7.50
2023-01-01T11:18:03.394Z,8.13
2023-01-01T11:20:30.540Z,8.95
2023-01-01T11:22:57.241Z,7.40
2023-01-01T11:25:26.347Z,8.27
2023-01-01T11:28:12.221Z,7.47
2023-01-01T11:30:39.495Z,9.17
2023-01-01T11:33:14.632Z,8.40
2023-01-01T11:35:49.944Z,9.00
2023-01-01T11:38:17.779Z,7.50
2023-01-01T11:40:47.377Z,9.20
2023-01-01T11:43:20.954Z,7.87
2023-01-01T11:45:48.350Z,8.52
2023-01-01T11:48:18.665Z,8.90
2023-01-01T11:50:54.042Z,10.15
2023-01-01T11:53:29.539Z,9.32
2023-01-01T11:56:03.563Z,6.80
2023-01-01T11:58:37.961Z,10.15
2023-01-01T12:01:10.256Z,7.88
2023-01-01T12:03:42.719Z,9.32
2023-01-01T12:06:16.530Z,6.85
2023-01-01T12:08:51.575Z,6.87
2023-01-01T12:11:24.144Z,9.82
2023-01-01T12:13:56.287Z,9.38
2023-01-01T12:16:28.449Z,8.52
2023-01-01T12:19:02.048Z,7.53
2023-01-01T12:21:29.306Z,8.60
2023-01-01T12:23:56.308Z,6.60
2023-01-01T12:26:25.998Z,8.48
2023-01-01T12:29:33.885Z,10.35
2023-01-01T12:32:07.372Z,7.97
2023-01-01T12:34:41.891Z,7.63
2023-01-01T12:37:17.127Z,7.63
2023-01-01T12:40:21.163Z,6.30
2023-01-01T12:43:00.584Z,7.13
2023-01-01T12:45:50.221Z,7.07
2023-01-01T12:48:44.793Z,7.90
2023-01-01T12:51:23.283Z,6.32
2023-01-01T12:54:04.982Z,7.68
2023-01-01T12:56:35.604Z,8.95
2023-01-01T12:59:06.003Z,9.90
2023-01-01T13:01:35.057Z,7.07
2023-01-01T13:04:04.250Z,7.93
2023-01-01T13:06:37.711Z,7.10
2023-01-01T13:09:07.773Z,8.13
2023-01-01T13:11:39.808Z,8.23
2023-01-01T13:14:09.901Z,8.40
2023-01-01T13:16:39.024Z,8.30
2023-01-01T13:19:06.282Z,6.65
2023-01-01T13:21:37.113Z,7.35
2023-01-01T13:24:18.375Z,7.13
2023-01-01T13:26:45.319Z,8.33
2023-01-01T13:29:44.053Z,9.52
2023-01-01T13:32:12.394Z,9.77
2023-01-01T13:35:17.939Z,8.60
2023-01-01T13:37:49.298Z,7.13
2023-01-01T13:40:52.385Z,8.30
2023-01-01T13:43:25.670Z,6.57
2023-01-01T13:49:20.279Z,9.02
2023-01-01T13:52:33.883Z,7.68
2023-01-01T13:55:46.101Z,8.37
2023-01-01T13:58:31.973Z,8.27
2023-01-01T14:01:23.148Z,8.38
2023-01-01T14:03:53.830Z,8.20
2023-01-01T14:06:28.949Z,11.27
2023-01-01T14:09:07.261Z,9.40
2023-01-01T14:11:35.551Z,8.95
2023-01-01T14:14:02.258Z,10.00
2023-01-01T14:16:29.433Z,10.43
2023-01-01T14:18:59.345Z,9.18
2023-01-01T14:21:30.554Z,7.43
2023-01-01T14:23:59.142Z,7.00
2023-01-01T14:26:28.430Z,6.88
2023-01-01T14:28:58.195Z,6.53
2023-01-01T14:31:27.772Z,7.85
2023-01-01T14:33:54.479Z,8.43
2023-01-01T14:36:23.728Z,8.23
2023-01-01T14:38:52.030Z,6.47
2023-01-01T14:41:23.064Z,8.68
2023-01-01T14:43:52.000Z,9.82
2023-01-01T14:46:22.310Z,7.80
2023-01-01T14:48:52.652Z,9.52
2023-01-01T14:51:22.923Z,10.57
2023-01-01T14:53:52.380Z,7.95
2023-01-01T14:56:24.652Z,7.47
2023-01-01T14:58:51.501Z,9.10
2023-01-01T15:01:24.313Z,9.60
2023-01-01T15:03:59.249Z,8.27
2023-01-01T15:06:26.075Z,9.75
2023-01-01T15:08:53.523Z,8.63
2023-01-01T15:11:26.617Z,10.00
2023-01-01T15:13:58.586Z,8.65
2023-01-01T15:16:27.978Z,10.57
2023-01-01T15:18:55.064Z,12.30
2023-01-01T15:21:33.870Z,10.68
2023-01-01T15:24:02.969Z,11.00
2023-01-01T15:26:31.605Z,11.27
2023-01-01T15:28:59.662Z,10.77
2023-01-01T15:31:37.326Z,10.80
2023-01-01T15:34:04.902Z,11.20
2023-01-01T15:36:31.829Z,10.70
2023-01-01T15:38:59.221Z,11.55
2023-01-01T15:41:40.568Z,9.02
2023-01-01T15:44:08.769Z,11.18
2023-01-01T15:46:36.853Z,10.90
2023-01-01T15:49:03.653Z,12.40
2023-01-01T15:51:30.447Z,14.68
2023-01-01T15:53:59.439Z,16.13
2023-01-01T15:56:28.636Z,13.43
2023-01-01T15:59:02.421Z,12.93
2023-01-01T16:01:37.880Z,11.73
2023-01-01T16:04:08.804Z,11.32
2023-01-01T16:06:43.191Z,10.85
2023-01-01T16:09:11.588Z,11.45
2023-01-01T16:11:38.256Z,12.85
2023-01-01T16:14:05.150Z,12.33
2023-01-01T16:16:32.314Z,14.98
2023-01-01T16:19:00.501Z,13.10
2023-01-01T16:21:28.567Z,10.43
2023-01-01T16:23:55.760Z,10.23
2023-01-01T16:26:22.756Z,14.00
2023-01-01T16:28:49.472Z,13.98
2023-01-01T16:31:17.652Z,16.73
2023-01-01T16:33:48.280Z,14.30
2023-01-01T16:36:16.307Z,13.52
2023-01-01T16:38:42.996Z,11.40
2023-01-01T16:41:13.683Z,13.40
2023-01-01T16:43:40.625Z,11.60
2023-01-01T16:46:13.130Z,11.82
2023-01-01T16:48:40.364Z,10.77
2023-01-01T16:51:07.680Z,11.82
2023-01-01T16:53:36.420Z,12.15
2023-01-01T16:56:03.157Z,10.77
2023-01-01T17:01:16.610Z,14.82
2023-01-01T17:03:43.376Z,11.88
2023-01-01T17:06:10.597Z,16.00
2023-01-01T17:08:39.020Z,11.13
2023-01-01T17:11:10.008Z,10.43
2023-01-01T17:13:36.953Z,11.70
2023-01-01T17:16:04.019Z,10.97
2023-01-01T17:19:12.908Z,11.25
2023-01-01T17:21:18.225Z,11.85
2023-01-01T17:23:46.618Z,16.05
2023-01-01T17:26:15.150Z,11.90
2023-01-01T17:28:42.715Z,14.73
2023-01-01T17:31:11.291Z,17.27
2023-01-01T17:33:39.249Z,15.75
2023-01-01T17:36:07.192Z,16.23
2023-01-01T17:38:34.149Z,12.57
2023-01-01T17:41:06.940Z,15.23
2023-01-01T17:43:33.941Z,17.13
2023-01-01T17:46:05.897Z,17.05
2023-01-01T17:48:33.015Z,15.05
2023-01-01T17:50:59.707Z,17.55
2023-01-01T17:53:26.473Z,14.88
2023-01-01T17:55:53.182Z,13.95
2023-01-01T17:58:21.809Z,17.65
2023-01-01T18:00:48.768Z,18.83
2023-01-01T18:03:17.189Z,17.42
2023-01-01T18:05:44.153Z,16.40
2023-01-01T18:08:11.202Z,15.77
2023-01-01T18:10:37.916Z,14.13
2023-01-01T18:13:04.628Z,13.63
2023-01-01T18:15:35.256Z,13.77
2023-01-01T18:18:02.056Z,12.43
2023-01-01T18:20:28.715Z,13.13
2023-01-01T18:22:55.380Z,12.57
2023-01-01T18:25:22.060Z,13.43
2023-01-01T18:27:53.928Z,15.07
2023-01-01T18:30:23.973Z,14.05
2023-01-01T18:32:53.031Z,12.85
2023-01-01T18:35:20.025Z,12.55
2023-01-01T18:37:46.736Z,11.93
2023-01-01T18:40:16.292Z,14.45
2023-01-01T18:42:50.337Z,12.02
2023-01-01T18:45:19.559Z,15.98
2023-01-01T18:47:46.426Z,14.07
2023-01-01T18:50:20.047Z,15.80
2023-01-01T18:52:46.721Z,15.63
2023-01-01T18:55:15.795Z,15.65
2023-01-01T18:57:47.747Z,15.85
2023-01-01T19:00:18.341Z,17.60
2023-01-01T19:02:52.213Z,14.13
2023-01-01T19:05:22.679Z,17.30
2023-01-01T19:07:53.515Z,15.50
2023-01-01T19:10:20.200Z,16.38
2023-01-01T19:12:48.402Z,18.33
2023-01-01T19:15:17.886Z,18.50
2023-01-01T19:17:44.928Z,17.77
2023-01-01T19:20:18.078Z,15.30
2023-01-01T19:22:46.203Z,18.98
2023-01-01T19:25:34.700Z,12.98
2023-01-01T19:28:34.138Z,17.45
2023-01-01T19:31:02.131Z,15.00
2023-01-01T19:33:29.499Z,15.35
2023-01-01T19:35:56.266Z,13.65
2023-01-01T19:38:24.352Z,12.95
2023-01-01T19:40:51.028Z,14.50
2023-01-01T19:43:17.678Z,12.88
2023-01-01T19:45:44.354Z,14.38
2023-01-01T19:48:11.046Z,14.88
2023-01-01T19:50:37.702Z,14.05
2023-01-01T19:53:04.376Z,11.93
2023-01-01T19:55:32.419Z,13.13
2023-01-01T19:57:59.152Z,12.52
2023-01-01T20:00:25.860Z,14.65
2023-01-01T20:02:52.636Z,14.52
2023-01-01T20:05:19.461Z,20.17
2023-01-01T20:07:46.178Z,17.13
2023-01-01T20:10:12.857Z,17.73
2023-01-01T20:12:40.891Z,15.70
2023-01-01T20:15:08.484Z,16.40
2023-01-01T20:17:35.158Z,12.63
2023-01-01T20:20:01.822Z,13.88
2023-01-01T20:22:28.615Z,10.23
2023-01-01T20:24:55.306Z,12.23
2023-01-01T20:27:22.001Z,17.38
2023-01-01T20:29:50.176Z,12.30
2023-01-01T20:32:17.267Z,13.50
2023-01-01T20:34:44.009Z,13.85
2023-01-01T20:37:10.690Z,11.00
2023-01-01T20:39:37.386Z,11.57
2023-01-01T20:42:04.511Z,14.55
2023-01-01T20:44:31.269Z,12.70
2023-01-01T20:46:59.331Z,13.48
2023-01-01T20:49:26.040Z,11.77
2023-01-01T20:51:53.433Z,10.57
2023-01-01T20:54:20.407Z,11.35
2023-01-01T20:56:47.288Z,12.02
2023-01-01T20:59:34.145Z,9.93
2023-01-01T21:02:02.414Z,11.77
2023-01-01T21:04:29.216Z,12.38
2023-01-01T21:06:55.876Z,11.75
2023-01-01T21:09:22.537Z,13.32
2023-01-01T21:11:49.256Z,12.82
2023-01-01T21:14:15.971Z,10.80
2023-01-01T21:16:43.924Z,11.88
2023-01-01T21:19:12.244Z,13.73
2023-01-01T21:21:44.213Z,13.25
2023-01-01T21:24:18.665Z,12.70
2023-01-01T21:26:45.401Z,14.52
2023-01-01T21:29:15.192Z,13.35
2023-01-01T21:31:41.907Z,12.65
2023-01-01T21:34:24.387Z,12.50
2023-01-01T21:36:51.098Z,14.70
2023-01-01T21:39:29.476Z,13.35
2023-01-01T21:42:06.175Z,13.23
2023-01-01T21:44:32.923Z,14.57
2023-01-01T21:47:02.021Z,15.52
2023-01-01T21:49:35.696Z,16.00
2023-01-01T21:52:02.865Z,14.52
2023-01-01T21:54:32.706Z,15.48
2023-01-01T21:57:00.878Z,12.15
2023-01-01T21:59:36.597Z,13.10
2023-01-01T22:02:35.015Z,12.13
2023-01-01T22:05:20.272Z,13.23
2023-01-01T22:08:02.621Z,10.15
2023-01-01T22:10:34.209Z,11.27
2023-01-01T22:13:01.492Z,11.80
2023-01-01T22:15:33.141Z,11.97
2023-01-01T22:18:26.291Z,10.90
2023-01-01T22:20:55.325Z,11.23
2023-01-01T22:23:35.073Z,9.32
2023-01-01T22:26:04.777Z,11.38
2023-01-01T22:28:37.595Z,11.25
2023-01-01T22:31:04.375Z,13.30
2023-01-01T22:33:36.074Z,12.65
2023-01-01T22:36:12.523Z,13.57
2023-01-01T22:38:39.558Z,9.85
2023-01-01T22:41:07.929Z,11.20
2023-01-01T22:43:36.571Z,9.63
2023-01-01T22:46:11.306Z,12.70
2023-01-01T22:48:38.750Z,11.95
2023-01-01T22:51:11.375Z,11.43
2023-01-01T22:53:38.034Z,11.30
2023-01-01T22:56:05.271Z,11.88
2023-01-01T22:58:31.942Z,11.05
2023-01-01T23:00:58.663Z,11.15
2023-01-01T23:03:25.441Z,9.98
2023-01-01T23:05:52.643Z,9.45
2023-01-01T23:08:20.920Z,9.65
2023-01-01T23:10:47.743Z,11.35
2023-01-01T23:13:14.430Z,9.95
2023-01-01T23:15:41.133Z,13.13
2023-01-01T23:18:07.823Z,10.77
2023-01-01T23:20:34.630Z,9.95
2023-01-01T23:23:01.491Z,9.25
2023-01-01T23:25:29.616Z,9.30
2023-01-01T23:27:56.409Z,9.07
2023-01-01T23:30:23.107Z,9.55
2023-01-01T23:32:49.979Z,9.00
2023-01-01T23:35:16.940Z,11.55
2023-01-01T23:37:43.646Z,9.57
2023-01-01T23:40:11.490Z,9.32
2023-01-01T23:42:39.565Z,10.35
2023-01-01T23:45:07.138Z,10.05
2023-01-01T23:47:34.084Z,9.40
2023-01-01T23:50:00.826Z,9.13
2023-01-01T23:52:27.947Z,8.88
2023-01-01T23:54:54.604Z,7.80
2023-01-01T23:57:21.273Z,9.48
2023-01-01T23:59:49.288Z,8.82
